Barksdale Air Force Base

KBAD · Luizjana, Stany Zjednoczone

Historia METAR KBAD · Barksdale Air Force Base

Poniżej widzisz METAR-y z ostatnich kilku dni. Wybierz rok, aby przeglądać starsze METAR-y, począwszy od roku 2007.

6 grudnia 2022

Czas Kod Pogoda Temp. Widoczność Sufit Wiatr METAR/SPECI
02:55
M
21 °C 10 mi 2.100 ft 200° 200° 7 kt SPECI KBAD 060855Z AUTO 20007KT 10SM OVC021 21/17 A2990 RMK AO2 RAE0759 SLP128 P0000 60000 T02080174 52010
02:55
M
21 °C 10 mi 2.100 ft 200° 200° 7 kt METAR KBAD 060855Z AUTO 20007KT 10SM OVC021 21/17 A2990 RMK AO2 RAE0759 SLP128 P0000 60000 T02080174 52010
01:59
M
21 °C 10 mi 2.100 ft 200° 200° 6 kt METAR KBAD 060759Z AUTO 20006KT 10SM BKN021 21/18 A2989 RMK AO2 RAE59 SLP125
01:55
M
21 °C 10 mi 2.100 ft 200° 200° 7 kt METAR KBAD 060755Z AUTO 20007KT 10SM -RA BKN021 21/18 A2989 RMK AO2 RAB49 SLP125 P0000 T02050177
01:05
M
21 °C 10 mi 1.600 ft 200° 200° 8 kt METAR KBAD 060705Z AUTO 20008KT 10SM OVC016 21/18 A2988 RMK AO2 SLP121
00:55
M
21 °C 10 mi 1.400 ft 200° 200° 9 kt METAR KBAD 060655Z AUTO 20009KT 10SM OVC014 21/18 A2988 RMK AO2 RAB19E28 SLP121 P0000 T02080180
00:28
M
21 °C 10 mi 1.400 ft 190° 190° 9 kt METAR KBAD 060628Z AUTO 19009KT 10SM OVC014 21/18 A2987 RMK AO2 RAB19E28 SLP118
00:19
M
21 °C 10 mi 1.400 ft 190° 190° 10 kt METAR KBAD 060619Z AUTO 19010KT 10SM -RA OVC014 21/18 A2987 RMK AO2 RAB19 SLP118
00:05
M
21 °C 10 mi 1.400 ft 190° 190° 9 kt METAR KBAD 060605Z AUTO 19009KT 10SM OVC014 21/18 A2987 RMK AO2 SLP118

5 grudnia 2022

Czas Kod Pogoda Temp. Widoczność Sufit Wiatr METAR/SPECI
23:55
M
21 °C 10 mi 1.500 ft 200° 200° 8 kt METAR KBAD 060555Z AUTO 20008KT 10SM BKN015 21/18 A2987 RMK AO2 SLP118 T02100182 10211 20196 402350110 52010
22:55
V
21 °C 10 mi - 200° 200° 10 kt METAR KBAD 060455Z AUTO 20010KT 10SM SCT220 21/18 A2986 RMK AO2 SLP115 T02110183
21:55
V
21 °C 10 mi - 180° 180° 9 kt METAR KBAD 060355Z AUTO 18009KT 10SM CLR 21/18 A2984 RMK AO2 SLP108 T02080182
20:56
V
21 °C 10 mi - 190° 190° 9 kt METAR KBAD 060256Z AUTO 19009KT 10SM CLR 21/18 A2984 RMK AO2 SLP108 T02090181 53000
19:55
V
21 °C 10 mi - 180° 180° 10 kt METAR KBAD 060155Z AUTO 18010KT 10SM CLR 21/18 A2984 RMK AO2 SLP108 T02060180
18:55
V
20 °C 10 mi - 170° 170° 7 kt METAR KBAD 060055Z AUTO 17007KT 10SM CLR 20/18 A2983 RMK AO2 SLP105 T01970175
17:55
V
21 °C 10 mi - 170° 170° 8 kt METAR KBAD 052355Z AUTO 17008KT 10SM SCT180 21/17 A2983 RMK AO2 RAB01E10 SLP105 P0000 60000 T02050171 10235 20205 58001
17:10
V
23 °C 10 mi 5.000 ft 200° 200° 7 kt METAR KBAD 052310Z AUTO 20007KT 10SM BKN050 23/18 A2983 RMK AO2 RAB01E10 SLP105
17:01
V
23 °C 10 mi 4.800 ft 200° 200° 8 kt METAR KBAD 052301Z AUTO 20008KT 10SM -RA BKN048 23/18 A2983 RMK AO2 RAB01 SLP105
16:55
V
23 °C 10 mi 4.800 ft 190° 190° 10 kt METAR KBAD 052255Z AUTO 19010KT 10SM OVC048 23/18 A2983 RMK AO2 RAB00E08 SLP105 P0000 T02330177
16:08
V
23 °C 10 mi 5.000 ft 200° 200° 9 kt METAR KBAD 052208Z AUTO 20009KT 10SM SCT029 SCT034 OVC050 23/18 A2984 RMK AO2 RAB00E08 SLP108
16:00
V
24 °C 10 mi 3.400 ft 200° 200° 10 kt METAR KBAD 052200Z AUTO 20010KT 10SM -RA SCT027 BKN034 OVC050 24/18 A2984 RMK AO2 RAB00 SLP108
15:55
M
23 °C 10 mi 2.700 ft 210° 210° 9 kt METAR KBAD 052155Z AUTO 21009KT 10SM BKN027 BKN035 OVC050 23/18 A2984 RMK AO2 SLP108 T02330179
14:55
M
23 °C 10 mi 2.200 ft 200° 200° 10 kt METAR KBAD 052055Z AUTO 20010KT 10SM OVC022 23/18 A2984 RMK AO2 SLP108 T02330182 57019
13:55
M
23 °C 10 mi 2.200 ft 220° 220° 10 kt METAR KBAD 051955Z AUTO 22010KT 10SM OVC022 23/18 A2985 RMK AO2 SLP111 T02260179
13:45
M
22 °C 10 mi 2.200 ft 210° 210° 10 kt SPECI KBAD 051945Z AUTO 21010KT 10SM OVC022 22/18 A2985 RMK AO2 SLP112
12:55
M
22 °C 10 mi 1.500 ft 210° 210° 10 kt METAR KBAD 051855Z AUTO 21010KT 10SM OVC015 22/18 A2987 RMK AO2 SLP118 T02170181
12:45
M
21 °C 10 mi 1.500 ft 210° 210° 9 kt SPECI KBAD 051845Z 21009KT 10SM OVC015 21/18 A2987 RMK AO2A SLP118
11:55
M
21 °C 10 mi 1.100 ft 200° 200° 7 kt METAR KBAD 051755Z 20007KT 10SM OVC011 21/18 A2989 RMK AO2A SLP125 T02050177 10205 20126 58016
10:55
M
20 °C 10 mi 1.100 ft 200° 200° 10 kt METAR KBAD 051655Z 20010KT 10SM OVC011 20/17 A2993 RMK AO2A T01990173
10:04
M
19 °C 10 mi 1.000 ft 200° 200° 8 kt METAR KBAD 051604Z 20008KT 10SM OVC010 19/17 A2995 RMK SLP146
09:55
I
19 °C 10 mi 900 ft 200° 200° 8 kt METAR KBAD 051555Z 20008KT 10SM OVC009 19/17 A2995 RMK AO2A SLP146 T01900170
09:36
I
19 °C 10 mi 800 ft 190° 190° 10 kt METAR KBAD 051536Z 19010KT 10SM OVC008 19/17 A2995 RMK AO2A SLP146
09:09
I
18 °C 10 mi 700 ft 190° 190° 10 kt METAR KBAD 051509Z 19010KT 10SM OVC007 18/17 A2994 RMK AO2A SLP142
08:55
I
17 °C 10 mi 600 ft 170° 170° 10 kt METAR KBAD 051455Z 17010KT 10SM OVC006 17/16 A2994 RMK AO2A VIS 2 1/4 RWY33 SLP142 60000 T01650155 57006
08:35
I
16 °C 10 mi 500 ft 180° 180° 8 kt METAR KBAD 051435Z AUTO 18008KT 10SM OVC005 16/15 A2995 RMK AO2 VIS 2 1/4 RWY33 SLP146
08:15
L
15 °C 10 mi 400 ft 180° 180° 4 kt METAR KBAD 051415Z AUTO 18004KT 10SM OVC004 15/14 A2995 RMK AO2 VIS 2 RWY33 SLP146
07:55
L
14 °C 10 mi 300 ft 160° 160° 4 kt METAR KBAD 051355Z AUTO 16004KT 10SM OVC003 14/13 A2995 RMK AO2 VIS 2 1/4 RWY33 RAE17RAB21E30 SLP146 P0000 T01400129
07:30
L
13 °C 10 mi 300 ft Var 000° 0 kt METAR KBAD 051330Z AUTO 00000KT 10SM OVC003 13/12 A2995 RMK AO2 VIS 2 3/4 RWY33 RAE17RAB21E30 SLP146
07:21
L
13 °C 10 mi 300 ft 160° 160° 4 kt METAR KBAD 051321Z AUTO 16004KT 10SM -RA OVC003 13/12 A2995 RMK AO2 RAE17RAB21 SLP146
07:17
L
13 °C 10 mi 300 ft 160° 160° 3 kt METAR KBAD 051317Z AUTO 16003KT 10SM OVC003 13/12 A2995 RMK AO2 RAE17 SLP146
06:55
L
13 °C 10 mi 300 ft Var 000° 0 kt METAR KBAD 051255Z AUTO 00000KT 10SM -RA OVC003 13/12 A2996 RMK AO2 RAB44 SLP149 P0000 T01290115
06:44
L
13 °C 10 mi 300 ft Var 000° 0 kt METAR KBAD 051244Z 00000KT 10SM -RA OVC003 13/11 A2996 RMK AO2A RAB44 SLP149
06:15
L
13 °C 10 mi 400 ft Var 000° 0 kt METAR KBAD 051215Z AUTO 00000KT 10SM OVC004 13/11 A2996 RMK AO2 SLP149
05:55
I
13 °C 10 mi 500 ft Var 000° 0 kt METAR KBAD 051155Z AUTO 00000KT 10SM OVC005 13/11 A2996 RMK AO2 SLP149 60000 T01250111 10126 20110 57015
05:16
I
12 °C 10 mi 500 ft Var 000° 0 kt METAR KBAD 051116Z AUTO 00000KT 10SM OVC005 12/11 A2996 RMK AO2 SLP149
04:56
I
12 °C 10 mi 600 ft Var 000° 0 kt METAR KBAD 051056Z AUTO 00000KT 10SM OVC006 12/11 A2996 RMK AO2 SLP149
04:55
I
12 °C 10 mi 700 ft Var 000° 0 kt METAR KBAD 051055Z AUTO 00000KT 10SM OVC007 12/11 A2996 RMK AO2 RAE01 SLP149 P0000 T01230107
04:31
I
12 °C 10 mi 700 ft Var 000° 0 kt METAR KBAD 051031Z AUTO 00000KT 10SM OVC007 12/11 A2998 RMK AO2 RAE01 SLP156
04:01
I
12 °C 10 mi 800 ft Var 000° 0 kt METAR KBAD 051001Z AUTO 00000KT 10SM OVC008 12/10 A2999 RMK AO2 RAE01 SLP159
03:55
I
12 °C 10 mi 900 ft Var 000° 0 kt METAR KBAD 050955Z AUTO 00000KT 10SM -RA OVC009 12/10 A2998 RMK AO2 RAB08E26RAB52 CIG 008 RWY33 SLP156 P0000 T01230104
03:26
I
12 °C 10 mi 800 ft Var 000° 0 kt METAR KBAD 050926Z AUTO 00000KT 10SM FEW003 OVC008 12/10 A2999 RMK AO2 RAB08E26 CIG 008V010 SLP159
03:08
M
13 °C 10 mi 1.100 ft Var 000° 0 kt METAR KBAD 050908Z AUTO 00000KT 10SM -RA FEW005 OVC011 13/10 A3000 RMK AO2 RAB08 OVC V BKN CIG 010 RWY33 SLP163
02:55
M
12 °C 10 mi 1.100 ft Var 000° 0 kt METAR KBAD 050855Z AUTO 00000KT 10SM FEW006 BKN011 BKN024 12/10 A3000 RMK AO2 RAB45E54 SLP163 P0000 60000 T01240098 57016
02:54
M
12 °C 10 mi 1.100 ft Var 000° 0 kt METAR KBAD 050854Z AUTO 00000KT 10SM FEW006 BKN011 BKN024 12/10 A3000 RMK AO2 RAB45E54 CIG 011V025 SLP163
02:45
M
12 °C 10 mi 2.500 ft Var 000° 0 kt SPECI KBAD 050845Z AUTO 00000KT 10SM -RA SCT006 SCT012 BKN025 BKN030 OVC044 12/10 A3001 RMK AO2 RAB45 CIG 025V038 BKN025 V SCT CIG 022 RWY33 SLP166
02:42
M
12 °C 10 mi 2.500 ft 170° 170° 4 kt METAR KBAD 050842Z AUTO 17004KT 10SM SCT006 SCT012 BKN025 BKN030 OVC044 12/10 A3001 RMK AO2 CIG 025V038 BKN025 V SCT CIG 022 RWY33 SLP166
02:35
V
12 °C 10 mi 3.800 ft 170° 170° 6 kt METAR KBAD 050835Z AUTO 17006KT 10SM SCT025 SCT031 BKN038 OVC046 12/09 A3001 RMK AO2 SLP166
02:25
M
12 °C 10 mi 2.900 ft 170° 170° 7 kt METAR KBAD 050825Z AUTO 17007KT 10SM BKN029 OVC035 12/09 A3001 RMK AO2 SLP166
01:55
V
12 °C 10 mi 3.300 ft 160° 160° 5 kt METAR KBAD 050755Z AUTO 16005KT 10SM FEW012 BKN033 OVC050 12/09 A3001 RMK AO2 SLP166 T01220087 $
01:05
V
12 °C 10 mi 5.500 ft 150° 150° 5 kt METAR KBAD 050705Z AUTO 15005KT 10SM SCT019 OVC055 12/08 A3002 RMK AO2 SLP170 $
00:55
M
12 °C 10 mi 1.900 ft 150° 150° 4 kt METAR KBAD 050655Z AUTO 15004KT 10SM BKN019 OVC055 12/08 A3003 RMK AO2 SLP173 T01150080 $
00:45
M
11 °C 10 mi 1.900 ft 150° 150° 4 kt SPECI KBAD 050645Z AUTO 15004KT 10SM BKN019 OVC050 11/08 A3003 RMK AO2 CIG 019V050 BKN V SCT SLP173 $

4 grudnia 2022

Czas Kod Pogoda Temp. Widoczność Sufit Wiatr METAR/SPECI
23:55
V
11 °C 10 mi 5.000 ft 160° 160° 5 kt METAR KBAD 050555Z AUTO 16005KT 10SM FEW042 OVC050 11/08 A3005 RMK AO2 SLP180 60000 T01090079 10116 20105 401520080 57027 $
22:55
V
11 °C 10 mi 6.500 ft 150° 150° 3 kt METAR KBAD 050455Z AUTO 15003KT 10SM OVC065 11/07 A3009 RMK AO2 SLP194 T01100073 $
21:55
V
11 °C 10 mi 4.400 ft 130° 130° 4 kt METAR KBAD 050355Z AUTO 13004KT 10SM BKN044 OVC055 11/07 A3011 RMK AO2 SLP201 T01070074 $
20:55
V
11 °C 10 mi 3.300 ft Var 000° 0 kt METAR KBAD 050255Z AUTO 00000KT 10SM FEW016 BKN033 OVC047 11/07 A3013 RMK AO2 SLP207 60000 T01090068 57006
19:55
V
11 °C 10 mi 3.400 ft 060° 060° 3 kt METAR KBAD 050155Z AUTO 06003KT 10SM FEW026 OVC034 11/07 A3014 RMK AO2 SLP211 T01080067
19:25
V
11 °C 10 mi 3.900 ft 040° 040° 3 kt METAR KBAD 050125Z AUTO 04003KT 10SM SCT027 OVC039 11/07 A3014 RMK AO2 SLP211
19:15
M
11 °C 10 mi 2.800 ft 030° 030° 3 kt METAR KBAD 050115Z AUTO 03003KT 10SM FEW017 BKN028 BKN037 BKN050 OVC065 11/06 A3015 RMK AO2 CIG 028V038 BKN028 V SCT SLP214
18:55
V
11 °C 10 mi 4.000 ft 040° 040° 3 kt METAR KBAD 050055Z AUTO 04003KT 10SM SCT025 BKN040 BKN060 OVC070 11/06 A3014 RMK AO2 RAB21E27DZB27E39 SLP211 P0000 T01070063
18:39
M
11 °C 10 mi 2.300 ft 060° 060° 5 kt METAR KBAD 050039Z AUTO 06005KT 10SM FEW008 SCT014 OVC023 11/07 A3014 RMK AO2 RAB21E27DZB27E39 CIG 020V025 SLP211
18:21
M
11 °C 10 mi 2.500 ft 050° 050° 5 kt METAR KBAD 050021Z AUTO 05005KT 10SM -RA FEW010 SCT015 OVC025 11/06 A3015 RMK AO2 RAB21 SLP214
17:55
M
12 °C 10 mi 2.500 ft 040° 040° 5 kt METAR KBAD 042355Z AUTO 04005KT 10SM FEW010 FEW016 OVC025 12/07 A3015 RMK AO2 SLP214 T01160067 10152 20116 58002
17:35
M
12 °C 10 mi 2.700 ft 040° 040° 4 kt METAR KBAD 042335Z AUTO 04004KT 10SM FEW010 SCT015 BKN027 OVC035 12/07 A3015 RMK AO2 CIG 027V036 SLP214
16:55
V
12 °C 10 mi 3.500 ft 060° 060° 5 kt METAR KBAD 042255Z AUTO 06005KT 10SM OVC035 12/07 A3015 RMK AO2 VIS 1 7/8 RWY33 SLP214 T01240069
15:55
V
14 °C 10 mi 3.500 ft 020° 020° 9 kt METAR KBAD 042155Z AUTO 02009KT 10SM BKN035 OVC043 14/07 A3016 RMK AO2 SLP217 T01380069
14:55
V
15 °C 10 mi 4.500 ft Var 000° 0 kt METAR KBAD 042055Z AUTO 00000KT 10SM OVC045 15/07 A3016 RMK AO2 SLP217 T01450066 57027
13:55
V
15 °C 6 mi 5.000 ft Var 000° 0 kt METAR KBAD 041955Z AUTO 00000KT 6SM HZ BKN050 OVC060 15/06 A3017 RMK AO2 SLP220 T01450063
12:55
V
15 °C 8 mi - 180° 180° 5 kt METAR KBAD 041855Z AUTO 18005KT 8SM FEW180 15/06 A3021 RMK AO2 SLP234 T01480058
12:15
V
13 °C 5 mi 5.000 ft 140° 140° 4 kt METAR KBAD 041815Z AUTO 14004KT 5SM HZ BKN050 BKN065 13/05 A3022 RMK AO2 SLP238
12:05
I
12 °C 2½ mi 5.000 ft 150° 150° 5 kt METAR KBAD 041805Z AUTO 15005KT 2 1/2SM HZ BKN050 12/05 A3023 RMK AO2 VIS 2V3 SLP241
11:55
M
12 °C 4 mi 5.000 ft 130° 130° 6 kt METAR KBAD 041755Z AUTO 13006KT 4SM HZ BKN050 BKN065 12/05 A3024 RMK AO2 SLP244 T01200049 10120 20080 58032
11:15
V
11 °C 8 mi 6.500 ft 130° 130° 4 kt METAR KBAD 041715Z AUTO 13004KT 8SM SCT017 BKN065 11/04 A3027 RMK AO2 PRESFR SLP255
10:55
M
10 °C 10 mi 1.600 ft 020° 020° 4 kt METAR KBAD 041655Z AUTO 02004KT 10SM OVC016 10/04 A3030 RMK AO2 SLP265 T01000039
09:55
M
9 °C 8 mi 1.500 ft Var 000° 0 kt METAR KBAD 041555Z AUTO 00000KT 8SM OVC015 09/04 A3033 RMK AO2 SLP275 T00890035
08:55
M
8 °C 10 mi 1.700 ft 320° 320° 8 kt METAR KBAD 041455Z AUTO 32008KT 10SM OVC017 08/03 A3033 RMK AO2 SLP275 T00810030 50008
07:55
M
9 °C 10 mi 1.700 ft 340° 340° 6 kt METAR KBAD 041355Z AUTO 34006KT 10SM OVC017 09/02 A3032 RMK AO2 CIG 016 RWY15 SLP272 T00880017
07:05
M
9 °C 10 mi 1.900 ft 360° 360° 4 kt METAR KBAD 041305Z AUTO 36004KT 10SM OVC019 09/02 A3033 RMK AO2 CIG 018 RWY15 SLP275
06:55
M
10 °C 10 mi 2.000 ft 360° 360° 3 kt METAR KBAD 041255Z AUTO 36003KT 10SM OVC020 10/02 A3032 RMK AO2 OVC V BKN CIG 018 RWY15 SLP271 T00950016
06:35
M
9 °C 10 mi 1.900 ft Var 000° 0 kt METAR KBAD 041235Z AUTO 00000KT 10SM BKN019 OVC025 09/01 A3032 RMK AO2 CIG 019V025 CIG 017 RWY15 SLP271
05:55
M
10 °C 10 mi 2.000 ft 350° 350° 5 kt METAR KBAD 041155Z AUTO 35005KT 10SM BKN020 OVC031 10/01 A3031 RMK AO2 CIG 019 RWY15 SLP268 T00950014 10110 20095 55002
05:35
M
10 °C 10 mi 2.000 ft 340° 340° 6 kt METAR KBAD 041135Z AUTO 34006KT 10SM BKN020 OVC041 10/01 A3030 RMK AO2 CIG 020V041 BKN V SCT CIG 019 RWY15 SLP264
04:55
V
10 °C 9 mi 4.200 ft 350° 350° 5 kt METAR KBAD 041055Z AUTO 35005KT 9SM OVC042 10/01 A3029 RMK AO2 SLP261 T00980014
03:55
M
10 °C 4 mi 4.100 ft 040° 040° 3 kt METAR KBAD 040955Z AUTO 04003KT 4SM HZ OVC041 10/02 A3030 RMK AO2 SLP264 T01000016
02:55
M
10 °C 4 mi 3.800 ft Var 000° 0 kt METAR KBAD 040855Z AUTO 00000KT 4SM HZ OVC038 10/01 A3031 RMK AO2 SLP268 T01030011 57013

My i strony trzecie śledzimy Twoje zachowanie internetowe na naszej stronie za pomocą plików cookie. Jeśli kontynuujesz, zakładamy, że zgadzasz się z naszymi polityka plików cookie.